createdAt,value
2023-04-28T00:00:42.632Z,1825.00
2023-04-28T00:01:42.627Z,1822.00
2023-04-28T00:02:42.739Z,1837.00
2023-04-28T00:03:42.842Z,1812.00
2023-04-28T00:04:42.782Z,1820.00
2023-04-28T00:05:42.724Z,1818.00
2023-04-28T00:06:42.746Z,1810.00
2023-04-28T00:07:42.698Z,1818.00
2023-04-28T00:08:42.734Z,1811.00
2023-04-28T00:09:42.750Z,1805.00
2023-04-28T00:10:42.780Z,1802.00
2023-04-28T00:11:42.794Z,1814.00
2023-04-28T00:12:42.814Z,1806.00
2023-04-28T00:13:42.853Z,1815.00
2023-04-28T00:14:42.847Z,1811.00
2023-04-28T00:15:42.869Z,1803.00
2023-04-28T00:16:43.166Z,1793.00
2023-04-28T00:17:42.987Z,1805.00
2023-04-28T00:18:42.906Z,1800.00
2023-04-28T00:19:42.966Z,1792.00
2023-04-28T00:20:42.964Z,1796.00
2023-04-28T00:21:43.005Z,1785.00
2023-04-28T00:22:43.014Z,1800.00
2023-04-28T00:23:43.069Z,1797.00
2023-04-28T00:24:43.061Z,1791.00
2023-04-28T00:25:43.080Z,1788.00
2023-04-28T00:26:43.088Z,1774.00
2023-04-28T00:27:43.109Z,1789.00
2023-04-28T00:28:43.141Z,1778.00
2023-04-28T00:29:43.140Z,1782.00
2023-04-28T00:30:43.172Z,1774.00
2023-04-28T00:31:43.179Z,1783.00
2023-04-28T00:32:43.223Z,1763.00
2023-04-28T00:33:43.226Z,1775.00
2023-04-28T00:34:43.219Z,1781.00
2023-04-28T00:35:43.231Z,1768.00
2023-04-28T00:36:43.247Z,1770.00
2023-04-28T00:37:43.295Z,1765.00
2023-04-28T00:38:43.296Z,1765.00
2023-04-28T00:39:43.318Z,1746.00
2023-04-28T00:40:43.330Z,1764.00
2023-04-28T00:41:43.385Z,1757.00
2023-04-28T00:42:43.351Z,1757.00
2023-04-28T00:43:43.387Z,1738.00
2023-04-28T00:44:43.401Z,1744.00
2023-04-28T00:45:43.443Z,1737.00
2023-04-28T00:46:43.395Z,1753.00
2023-04-28T00:47:43.454Z,1752.00
2023-04-28T00:48:43.436Z,1742.00
2023-04-28T00:49:43.418Z,1748.00
2023-04-28T00:50:43.420Z,1741.00
2023-04-28T00:51:43.464Z,1739.00
2023-04-28T00:52:43.491Z,1756.00
2023-04-28T00:53:43.514Z,1747.00
2023-04-28T00:54:43.508Z,1738.00
2023-04-28T00:55:43.542Z,1730.00
2023-04-28T00:56:43.585Z,1724.00
2023-04-28T00:57:43.623Z,1724.00
2023-04-28T00:58:43.592Z,1721.00
2023-04-28T00:59:43.625Z,1735.00
2023-04-28T01:00:43.630Z,1715.00
2023-04-28T01:01:43.695Z,1714.00
2023-04-28T01:02:43.644Z,1719.00
2023-04-28T01:03:43.724Z,1710.00
2023-04-28T01:04:43.738Z,1714.00
2023-04-28T01:05:43.696Z,1693.00
2023-04-28T01:06:43.714Z,1711.00
2023-04-28T01:07:43.716Z,1700.00
2023-04-28T01:08:43.727Z,1700.00
2023-04-28T01:09:43.698Z,1704.00
2023-04-28T01:10:43.722Z,1711.00
2023-04-28T01:11:43.749Z,1705.00
2023-04-28T01:12:43.740Z,1690.00
2023-04-28T01:13:43.713Z,1696.00
2023-04-28T01:14:43.712Z,1699.00
2023-04-28T01:15:43.743Z,1707.00
2023-04-28T01:16:43.771Z,1684.00
2023-04-28T01:17:43.791Z,1693.00
2023-04-28T01:18:43.790Z,1687.00
2023-04-28T01:19:43.827Z,1689.00
2023-04-28T01:20:43.794Z,1692.00
2023-04-28T01:21:43.828Z,1688.00
2023-04-28T01:22:43.839Z,1686.00
2023-04-28T01:23:43.863Z,1693.00
2023-04-28T01:24:43.867Z,1683.00
2023-04-28T01:25:43.876Z,1690.00
2023-04-28T01:26:43.878Z,1679.00
2023-04-28T01:27:43.887Z,1673.00
2023-04-28T01:28:43.919Z,1686.00
2023-04-28T01:29:43.940Z,1669.00
2023-04-28T01:30:43.931Z,1686.00
2023-04-28T01:31:43.999Z,1655.00
2023-04-28T01:32:44.006Z,1662.00
2023-04-28T01:33:43.970Z,1657.00
2023-04-28T01:34:43.959Z,1656.00
2023-04-28T01:35:44.019Z,1668.00
2023-04-28T01:36:44.012Z,1660.00
2023-04-28T01:37:44.003Z,1667.00
2023-04-28T01:38:44.024Z,1655.00
2023-04-28T01:39:44.053Z,1656.00
2023-04-28T01:40:44.057Z,1667.00
2023-04-28T01:41:44.053Z,1661.00
2023-04-28T01:42:44.089Z,1648.00
2023-04-28T01:43:44.103Z,1646.00
2023-04-28T01:44:44.102Z,1639.00
2023-04-28T01:45:44.104Z,1641.00
2023-04-28T01:46:44.134Z,1650.00
2023-04-28T01:47:44.177Z,1649.00
2023-04-28T01:48:44.157Z,1658.00
2023-04-28T01:49:44.159Z,1654.00
2023-04-28T01:50:44.177Z,1633.00
2023-04-28T01:51:44.174Z,1632.00
2023-04-28T01:52:44.184Z,1629.00
2023-04-28T01:53:44.180Z,1633.00
2023-04-28T01:54:44.194Z,1639.00
2023-04-28T01:55:44.963Z,1644.00
2023-04-28T01:56:44.244Z,1619.00
2023-04-28T01:57:44.247Z,1623.00
2023-04-28T01:58:44.282Z,1624.00
2023-04-28T01:59:44.284Z,1619.00
2023-04-28T02:00:44.232Z,1617.00
2023-04-28T02:01:44.351Z,1620.00
2023-04-28T02:02:44.426Z,1619.00
2023-04-28T02:03:44.609Z,1628.00
2023-04-28T02:04:44.423Z,1599.00
2023-04-28T02:05:44.308Z,1607.00
2023-04-28T02:06:44.341Z,1605.00
2023-04-28T02:07:44.325Z,1609.00
2023-04-28T02:08:44.332Z,1600.00
2023-04-28T02:09:44.330Z,1602.00
2023-04-28T02:10:44.356Z,1596.00
2023-04-28T02:11:44.355Z,1588.00
2023-04-28T02:12:44.369Z,1599.00
2023-04-28T02:13:44.408Z,1585.00
2023-04-28T02:14:44.389Z,1592.00
2023-04-28T02:15:44.463Z,1600.00
2023-04-28T02:16:44.408Z,1590.00
2023-04-28T02:17:44.462Z,1591.00
2023-04-28T02:18:44.413Z,1588.00
2023-04-28T02:19:44.437Z,1589.00
2023-04-28T02:20:44.466Z,1585.00
2023-04-28T02:21:44.472Z,1592.00
2023-04-28T02:22:44.456Z,1569.00
2023-04-28T02:23:44.510Z,1569.00
2023-04-28T02:24:44.503Z,1576.00
2023-04-28T02:25:44.491Z,1565.00
2023-04-28T02:26:44.498Z,1581.00
2023-04-28T02:27:44.555Z,1577.00
2023-04-28T02:28:44.513Z,1574.00
2023-04-28T02:29:44.556Z,1584.00
2023-04-28T02:30:44.536Z,1571.00
2023-04-28T02:31:44.583Z,1566.00
2023-04-28T02:32:44.616Z,1566.00
2023-04-28T02:33:44.566Z,1559.00
2023-04-28T02:34:44.568Z,1572.00
2023-04-28T02:35:44.620Z,1562.00
2023-04-28T02:36:44.619Z,1567.00
2023-04-28T02:37:44.615Z,1559.00
2023-04-28T02:38:44.616Z,1559.00
2023-04-28T02:39:44.676Z,1553.00
2023-04-28T02:40:44.653Z,1553.00
2023-04-28T02:41:44.679Z,1560.00
2023-04-28T02:42:44.644Z,1548.00
2023-04-28T02:43:44.649Z,1551.00
2023-04-28T02:44:44.667Z,1561.00
2023-04-28T02:45:44.673Z,1543.00
2023-04-28T02:46:44.822Z,1549.00
2023-04-28T02:47:44.774Z,1548.00
2023-04-28T02:48:44.735Z,1551.00
2023-04-28T02:49:44.760Z,1541.00
2023-04-28T02:50:44.771Z,1554.00
2023-04-28T02:51:44.828Z,1539.00
2023-04-28T02:52:44.946Z,1547.00
2023-04-28T02:53:44.806Z,1547.00
2023-04-28T02:54:44.815Z,1530.00
2023-04-28T02:55:44.830Z,1528.00
2023-04-28T02:56:44.852Z,1527.00
2023-04-28T02:57:44.815Z,1534.00
2023-04-28T02:58:44.853Z,1533.00
2023-04-28T02:59:44.829Z,1515.00
2023-04-28T03:00:44.870Z,1525.00
2023-04-28T03:01:44.902Z,1525.00
2023-04-28T03:02:44.943Z,1513.00
2023-04-28T03:03:45.111Z,1518.00
2023-04-28T03:04:44.975Z,1524.00
2023-04-28T03:05:44.906Z,1512.00
2023-04-28T03:06:44.931Z,1526.00
2023-04-28T03:07:44.918Z,1502.00
2023-04-28T03:08:44.917Z,1506.00
2023-04-28T03:09:44.934Z,1514.00
2023-04-28T03:10:44.928Z,1512.00
2023-04-28T03:11:44.974Z,1510.00
2023-04-28T03:12:44.965Z,1504.00
2023-04-28T03:13:44.992Z,1508.00
2023-04-28T03:14:44.984Z,1502.00
2023-04-28T03:15:44.993Z,1498.00
2023-04-28T03:16:45.008Z,1495.00
2023-04-28T03:17:45.055Z,1511.00
2023-04-28T03:18:44.991Z,1498.00
2023-04-28T03:19:45.023Z,1504.00
2023-04-28T03:20:45.018Z,1490.00
2023-04-28T03:21:45.020Z,1484.00
2023-04-28T03:22:45.037Z,1511.00
2023-04-28T03:23:45.079Z,1504.00
2023-04-28T03:24:45.047Z,1496.00
2023-04-28T03:25:45.068Z,1489.00
2023-04-28T03:26:45.084Z,1485.00
2023-04-28T03:27:45.081Z,1493.00
2023-04-28T03:28:45.079Z,1491.00
2023-04-28T03:29:45.104Z,1479.00
2023-04-28T03:30:45.119Z,1483.00
2023-04-28T03:31:45.174Z,1482.00
2023-04-28T03:32:45.128Z,1484.00
2023-04-28T03:33:45.113Z,1484.00
2023-04-28T03:34:45.103Z,1472.00
2023-04-28T03:35:45.142Z,1481.00
2023-04-28T03:36:45.215Z,1468.00
2023-04-28T03:37:45.142Z,1483.00
2023-04-28T03:38:45.152Z,1480.00
2023-04-28T03:39:45.198Z,1465.00
2023-04-28T03:40:45.165Z,1479.00
2023-04-28T03:41:45.203Z,1465.00
2023-04-28T03:42:45.211Z,1463.00
2023-04-28T03:43:45.210Z,1465.00
2023-04-28T03:44:45.246Z,1474.00
2023-04-28T03:45:45.275Z,1474.00
2023-04-28T03:46:45.200Z,1475.00
2023-04-28T03:47:45.238Z,1469.00
2023-04-28T03:48:45.247Z,1468.00
2023-04-28T03:49:45.257Z,1464.00
2023-04-28T03:50:45.253Z,1458.00
2023-04-28T03:51:45.270Z,1463.00
2023-04-28T03:52:45.304Z,1446.00
2023-04-28T03:53:45.297Z,1455.00
2023-04-28T03:54:45.319Z,1441.00
2023-04-28T03:55:45.343Z,1452.00
2023-04-28T03:56:45.317Z,1454.00
2023-04-28T03:57:45.340Z,1453.00
2023-04-28T03:58:45.365Z,1453.00
2023-04-28T03:59:45.372Z,1435.00
2023-04-28T04:00:45.381Z,1448.00
2023-04-28T04:01:45.394Z,1439.00
2023-04-28T04:02:45.594Z,1457.00
2023-04-28T04:03:45.669Z,1433.00
2023-04-28T04:04:45.610Z,1442.00
2023-04-28T04:05:45.443Z,1453.00
2023-04-28T04:06:45.474Z,1437.00
2023-04-28T04:07:45.507Z,1442.00
2023-04-28T04:08:45.506Z,1433.00
2023-04-28T04:09:45.500Z,1433.00
2023-04-28T04:10:45.470Z,1430.00
2023-04-28T04:11:45.533Z,1429.00
2023-04-28T04:12:45.532Z,1422.00
2023-04-28T04:13:45.536Z,1438.00
2023-04-28T04:14:45.549Z,1413.00
2023-04-28T04:15:45.577Z,1438.00
2023-04-28T04:16:45.534Z,1429.00
2023-04-28T04:17:45.596Z,1427.00
2023-04-28T04:18:45.583Z,1427.00
2023-04-28T04:19:45.565Z,1416.00
2023-04-28T04:20:45.602Z,1432.00
2023-04-28T04:21:45.617Z,1407.00
2023-04-28T04:22:45.619Z,1429.00
2023-04-28T04:23:45.629Z,1411.00
2023-04-28T04:24:45.625Z,1400.00
2023-04-28T04:25:45.698Z,1406.00
2023-04-28T04:26:45.655Z,1413.00
2023-04-28T04:27:45.642Z,1397.00
2023-04-28T04:28:45.665Z,1404.00
2023-04-28T04:29:45.675Z,1404.00
2023-04-28T04:30:45.714Z,1404.00
2023-04-28T04:31:45.844Z,1420.00
2023-04-28T04:32:45.699Z,1402.00
2023-04-28T04:33:45.692Z,1415.00
2023-04-28T04:34:45.727Z,1406.00
2023-04-28T04:35:45.717Z,1381.00
2023-04-28T04:36:45.747Z,1403.00
2023-04-28T04:37:45.753Z,1406.00
2023-04-28T04:38:45.766Z,1401.00
2023-04-28T04:39:45.760Z,1394.00
2023-04-28T04:40:45.777Z,1406.00
2023-04-28T04:41:45.787Z,1395.00
2023-04-28T04:42:45.816Z,1383.00
2023-04-28T04:43:45.823Z,1376.00
2023-04-28T04:44:45.813Z,1387.00
2023-04-28T04:45:45.815Z,1399.00
2023-04-28T04:46:45.861Z,1390.00
2023-04-28T04:47:45.936Z,1405.00
2023-04-28T04:48:45.830Z,1380.00
2023-04-28T04:49:45.829Z,1374.00
2023-04-28T04:50:45.848Z,1388.00
2023-04-28T04:51:45.890Z,1372.00
2023-04-28T04:52:45.883Z,1372.00
2023-04-28T04:53:45.894Z,1379.00
2023-04-28T04:54:45.881Z,1379.00
2023-04-28T04:55:45.973Z,1361.00
2023-04-28T04:56:45.909Z,1373.00
2023-04-28T04:57:45.917Z,1363.00
2023-04-28T04:58:45.926Z,1365.00
2023-04-28T04:59:45.931Z,1363.00
2023-04-28T05:00:45.977Z,1357.00
2023-04-28T05:01:46.007Z,1378.00
2023-04-28T05:02:46.088Z,1374.00
2023-04-28T05:03:46.143Z,1357.00
2023-04-28T05:04:46.049Z,1369.00
2023-04-28T05:05:46.433Z,1365.00
2023-04-28T05:06:46.009Z,1353.00
2023-04-28T05:07:46.000Z,1353.00
2023-04-28T05:08:46.004Z,1362.00
2023-04-28T05:09:46.036Z,1357.00
2023-04-28T05:10:46.060Z,1345.00
2023-04-28T05:11:46.037Z,1365.00
2023-04-28T05:12:48.343Z,1361.00
2023-04-28T05:13:46.056Z,1360.00
2023-04-28T05:14:46.037Z,1345.00
2023-04-28T05:15:46.018Z,1352.00
2023-04-28T05:16:46.124Z,1351.00
2023-04-28T05:17:46.078Z,1354.00
2023-04-28T05:18:46.067Z,1352.00
2023-04-28T05:19:45.990Z,1353.00
2023-04-28T05:20:46.022Z,1343.00
2023-04-28T05:21:46.584Z,1348.00
2023-04-28T05:22:45.994Z,1352.00
2023-04-28T05:23:45.977Z,1326.00
2023-04-28T05:24:45.946Z,1335.00
2023-04-28T05:25:45.966Z,1337.00
2023-04-28T05:26:45.963Z,1337.00
2023-04-28T05:27:45.972Z,1340.00
2023-04-28T05:28:45.958Z,1335.00
2023-04-28T05:29:45.945Z,1340.00
2023-04-28T05:30:45.918Z,1338.00
2023-04-28T05:31:45.938Z,1335.00
2023-04-28T05:32:45.961Z,1340.00
2023-04-28T05:33:45.906Z,1343.00
2023-04-28T05:34:45.917Z,1328.00
2023-04-28T05:35:45.881Z,1327.00
2023-04-28T05:36:45.909Z,1345.00
2023-04-28T05:37:45.849Z,1335.00
2023-04-28T05:38:45.852Z,1345.00
2023-04-28T05:39:45.877Z,1353.00
2023-04-28T05:40:45.848Z,1356.00
2023-04-28T05:41:45.833Z,1355.00
2023-04-28T05:42:45.868Z,1375.00
2023-04-28T05:43:45.833Z,1381.00
2023-04-28T05:44:45.846Z,1391.00
2023-04-28T05:45:45.842Z,1410.00
2023-04-28T05:46:45.891Z,1310.00
2023-04-28T05:47:46.069Z,1141.00
2023-04-28T05:48:45.796Z,1120.00
2023-04-28T05:49:45.800Z,1050.00
2023-04-28T05:50:45.784Z,979.00
2023-04-28T05:51:45.816Z,880.00
2023-04-28T05:52:46.092Z,884.00
2023-04-28T05:53:45.728Z,819.00
2023-04-28T05:54:45.738Z,843.00
2023-04-28T05:55:45.737Z,826.00
2023-04-28T05:56:45.741Z,810.00
2023-04-28T05:57:52.988Z,780.00
2023-04-28T05:58:46.703Z,777.00
2023-04-28T05:59:45.724Z,704.00
2023-04-28T06:00:45.696Z,690.00
2023-04-28T06:01:45.700Z,659.00
2023-04-28T06:02:45.849Z,639.00
2023-04-28T06:03:45.911Z,629.00
2023-04-28T06:04:46.110Z,623.00
2023-04-28T06:05:45.922Z,605.00
2023-04-28T06:06:45.663Z,603.00
2023-04-28T06:07:46.188Z,594.00
2023-04-28T06:08:45.738Z,582.00
2023-04-28T06:09:45.782Z,573.00
2023-04-28T06:10:45.887Z,564.00
2023-04-28T06:11:45.913Z,548.00
2023-04-28T06:12:46.096Z,517.00
2023-04-28T06:13:45.961Z,506.00
2023-04-28T06:14:45.930Z,505.00
2023-04-28T06:15:46.062Z,506.00
2023-04-28T06:16:45.995Z,501.00
2023-04-28T06:17:46.004Z,502.00
2023-04-28T06:18:47.321Z,508.00
2023-04-28T06:19:46.007Z,502.00
2023-04-28T06:20:46.049Z,502.00
2023-04-28T06:21:46.070Z,503.00
2023-04-28T06:22:46.136Z,504.00
2023-04-28T06:23:46.112Z,502.00
2023-04-28T06:24:46.135Z,504.00
2023-04-28T06:25:46.167Z,508.00
2023-04-28T06:26:46.198Z,517.00
2023-04-28T06:27:46.169Z,513.00
2023-04-28T06:28:46.196Z,512.00
2023-04-28T06:29:46.206Z,514.00
2023-04-28T06:30:46.181Z,514.00
2023-04-28T06:31:46.216Z,506.00
2023-04-28T06:32:46.230Z,508.00
2023-04-28T06:33:46.190Z,503.00
2023-04-28T06:34:46.210Z,500.00
2023-04-28T06:35:46.214Z,503.00
2023-04-28T06:36:46.259Z,513.00
2023-04-28T06:37:46.274Z,518.00
2023-04-28T06:38:46.291Z,540.00
2023-04-28T06:39:46.286Z,581.00
2023-04-28T06:40:46.345Z,605.00
2023-04-28T06:41:46.315Z,614.00
2023-04-28T06:42:46.351Z,616.00
2023-04-28T06:43:46.351Z,617.00
2023-04-28T06:44:46.447Z,622.00
2023-04-28T06:45:46.520Z,616.00
2023-04-28T06:46:46.547Z,634.00
2023-04-28T06:47:46.664Z,772.00
2023-04-28T06:48:46.611Z,773.00
2023-04-28T06:49:46.600Z,835.00
2023-04-28T06:50:46.615Z,851.00
2023-04-28T06:51:46.587Z,904.00
2023-04-28T06:52:47.111Z,909.00
2023-04-28T06:53:46.655Z,907.00
2023-04-28T06:54:46.747Z,852.00
2023-04-28T06:55:46.695Z,836.00
2023-04-28T06:56:46.749Z,919.00
2023-04-28T06:57:46.769Z,1023.00
2023-04-28T06:58:46.822Z,1061.00
2023-04-28T06:59:46.882Z,1139.00
2023-04-28T07:00:46.928Z,1197.00
2023-04-28T07:01:46.934Z,1240.00
2023-04-28T07:02:47.094Z,1286.00
2023-04-28T07:03:47.156Z,1285.00
2023-04-28T07:04:47.045Z,1302.00
2023-04-28T07:05:47.033Z,1317.00
2023-04-28T07:06:47.046Z,1362.00
2023-04-28T07:07:47.090Z,1365.00
2023-04-28T07:08:47.072Z,1372.00
2023-04-28T07:09:47.111Z,1355.00
2023-04-28T07:10:47.095Z,1358.00
2023-04-28T07:11:47.116Z,1392.00
2023-04-28T07:12:47.127Z,1377.00
2023-04-28T07:13:47.127Z,1388.00
2023-04-28T07:14:47.201Z,1389.00
2023-04-28T07:15:47.143Z,1371.00
2023-04-28T07:16:47.336Z,1364.00
2023-04-28T07:17:47.257Z,1331.00
2023-04-28T07:18:47.239Z,1293.00
2023-04-28T07:19:47.233Z,1253.00
2023-04-28T07:20:47.277Z,1261.00
2023-04-28T07:21:47.284Z,1164.00
2023-04-28T07:22:47.294Z,1133.00
2023-04-28T07:23:47.257Z,1118.00
2023-04-28T07:24:47.294Z,1130.00
2023-04-28T07:25:47.323Z,1074.00
2023-04-28T07:26:47.332Z,1052.00
2023-04-28T07:27:47.335Z,1022.00
2023-04-28T07:28:48.098Z,1056.00
2023-04-28T07:29:47.366Z,1043.00
2023-04-28T07:30:47.391Z,1058.00
2023-04-28T07:31:47.398Z,1030.00
2023-04-28T07:32:47.463Z,1109.00
2023-04-28T07:33:47.427Z,1139.00
2023-04-28T07:34:47.457Z,1153.00
2023-04-28T07:35:47.468Z,1184.00
2023-04-28T07:36:47.513Z,1158.00
2023-04-28T07:37:47.601Z,1210.00
2023-04-28T07:38:47.542Z,1185.00
2023-04-28T07:39:47.585Z,1205.00
2023-04-28T07:40:47.552Z,1170.00
2023-04-28T07:41:47.803Z,1191.00
2023-04-28T07:42:47.630Z,1216.00
2023-04-28T07:43:47.671Z,1206.00
2023-04-28T07:44:47.685Z,1206.00
2023-04-28T07:45:47.691Z,1194.00
2023-04-28T07:46:47.663Z,1133.00
2023-04-28T07:47:48.122Z,1142.00
2023-04-28T07:48:47.694Z,1180.00
2023-04-28T07:49:47.709Z,1195.00
2023-04-28T07:50:47.771Z,1205.00
2023-04-28T07:51:47.877Z,1204.00
2023-04-28T07:52:47.792Z,1232.00
2023-04-28T07:53:47.811Z,1229.00
2023-04-28T07:54:47.838Z,1198.00
2023-04-28T07:55:47.901Z,1186.00
2023-04-28T07:56:47.893Z,1146.00
2023-04-28T07:57:47.938Z,1160.00
2023-04-28T07:58:48.141Z,1153.00
2023-04-28T07:59:47.974Z,1107.00
2023-04-28T08:00:48.042Z,1073.00
2023-04-28T08:01:48.041Z,1038.00
2023-04-28T08:02:48.228Z,986.00
2023-04-28T08:03:48.521Z,1003.00
2023-04-28T08:04:48.381Z,1052.00
2023-04-28T08:05:48.262Z,1019.00
2023-04-28T08:06:48.207Z,1022.00
2023-04-28T08:07:48.301Z,1004.00
2023-04-28T08:08:48.327Z,985.00
2023-04-28T08:09:48.388Z,951.00
2023-04-28T08:10:48.403Z,936.00
2023-04-28T08:11:48.393Z,912.00
2023-04-28T08:12:48.491Z,861.00
2023-04-28T08:13:48.496Z,922.00
2023-04-28T08:14:48.545Z,966.00
2023-04-28T08:15:48.625Z,960.00
2023-04-28T08:16:48.672Z,902.00
2023-04-28T08:17:48.719Z,867.00
2023-04-28T08:18:48.800Z,862.00
2023-04-28T08:19:48.773Z,833.00
2023-04-28T08:20:48.819Z,818.00
2023-04-28T08:21:48.892Z,781.00
2023-04-28T08:22:48.945Z,781.00
2023-04-28T08:23:48.988Z,733.00
2023-04-28T08:24:49.039Z,744.00
2023-04-28T08:25:49.079Z,699.00
2023-04-28T08:26:49.126Z,699.00
2023-04-28T08:27:49.209Z,665.00
2023-04-28T08:28:49.238Z,641.00
2023-04-28T08:29:49.330Z,610.00
2023-04-28T08:30:49.352Z,580.00
2023-04-28T08:31:49.509Z,590.00
2023-04-28T08:32:49.558Z,569.00
2023-04-28T08:33:49.529Z,566.00
2023-04-28T08:34:49.593Z,584.00
2023-04-28T08:35:49.674Z,578.00
2023-04-28T08:36:49.627Z,561.00
2023-04-28T08:37:49.724Z,528.00
2023-04-28T08:38:49.715Z,652.00
2023-04-28T08:39:49.807Z,806.00
2023-04-28T08:40:49.784Z,1073.00
2023-04-28T08:41:49.787Z,1459.00
2023-04-28T08:42:49.805Z,1392.00
2023-04-28T08:43:49.857Z,1558.00
2023-04-28T08:44:49.900Z,1628.00
2023-04-28T08:45:49.905Z,1669.00
2023-04-28T08:46:50.043Z,1743.00
2023-04-28T08:47:50.093Z,1834.00
2023-04-28T08:48:49.949Z,1945.00
2023-04-28T08:49:50.008Z,2057.00
2023-04-28T08:50:50.028Z,2145.00
2023-04-28T08:51:50.115Z,2453.00
2023-04-28T08:52:50.241Z,2522.00
2023-04-28T08:54:18.422Z,2456.00
2023-04-28T08:54:51.114Z,2458.00
2023-04-28T08:55:50.103Z,2462.00
2023-04-28T08:56:50.095Z,2956.00
2023-04-28T08:57:50.113Z,3078.00
2023-04-28T08:58:50.149Z,3070.00
2023-04-28T08:59:50.077Z,2957.00
2023-04-28T09:00:50.100Z,2923.00
2023-04-28T09:01:50.224Z,2891.00
2023-04-28T09:02:50.204Z,2871.00
2023-04-28T09:03:50.094Z,2853.00
2023-04-28T09:04:50.176Z,2867.00
2023-04-28T09:05:50.058Z,2884.00
2023-04-28T09:06:50.041Z,2875.00
2023-04-28T09:07:50.043Z,2902.00
2023-04-28T09:08:50.059Z,2918.00
2023-04-28T09:09:50.010Z,2995.00
2023-04-28T09:10:50.046Z,3030.00
2023-04-28T09:11:50.025Z,3010.00
2023-04-28T09:12:50.045Z,3005.00
2023-04-28T09:13:50.074Z,3041.00
2023-04-28T09:14:50.128Z,3068.00
2023-04-28T09:15:50.166Z,3544.00
2023-04-28T09:16:50.266Z,3873.00
2023-04-28T09:17:51.196Z,3643.00
2023-04-28T09:18:50.319Z,3454.00
2023-04-28T09:19:50.338Z,3384.00
2023-04-28T09:20:50.430Z,3350.00
2023-04-28T09:21:50.541Z,3333.00
2023-04-28T09:22:50.554Z,3334.00
2023-04-28T09:23:50.537Z,3293.00
2023-04-28T09:24:50.560Z,3291.00
2023-04-28T09:25:50.623Z,3303.00
2023-04-28T09:26:50.643Z,3329.00
2023-04-28T09:27:50.688Z,3342.00
2023-04-28T09:28:50.739Z,3384.00
2023-04-28T09:29:50.729Z,3366.00
2023-04-28T09:30:50.756Z,3354.00
2023-04-28T09:31:50.802Z,3382.00
2023-04-28T09:32:50.862Z,3384.00
2023-04-28T09:33:50.856Z,3401.00
2023-04-28T09:34:50.873Z,3341.00
2023-04-28T09:35:50.923Z,2954.00
2023-04-28T09:36:50.922Z,2516.00
2023-04-28T09:37:50.984Z,2222.00
2023-04-28T09:38:51.174Z,1968.00
2023-04-28T09:39:51.084Z,1826.00
2023-04-28T09:40:51.118Z,1671.00
2023-04-28T09:41:51.087Z,1996.00
2023-04-28T09:42:51.138Z,1933.00
2023-04-28T09:43:51.157Z,2007.00
2023-04-28T09:44:51.204Z,2060.00
2023-04-28T09:45:51.218Z,2163.00
2023-04-28T09:46:51.221Z,2288.00
2023-04-28T09:47:51.282Z,2295.00
2023-04-28T09:48:51.704Z,2327.00
2023-04-28T09:49:51.305Z,2350.00
2023-04-28T09:50:51.318Z,2357.00
2023-04-28T09:51:51.360Z,2411.00
2023-04-28T09:52:51.349Z,2400.00
2023-04-28T09:53:51.419Z,2331.00
2023-04-28T09:54:51.476Z,2391.00
2023-04-28T09:55:51.522Z,2397.00
2023-04-28T09:56:51.587Z,2396.00
2023-04-28T09:57:51.647Z,2408.00
2023-04-28T09:58:51.718Z,2434.00
2023-04-28T09:59:51.756Z,2416.00
2023-04-28T10:00:51.799Z,2418.00
2023-04-28T10:01:51.885Z,2434.00
2023-04-28T10:02:52.331Z,2416.00
2023-04-28T10:03:52.047Z,2407.00
2023-04-28T10:04:52.185Z,2397.00
2023-04-28T10:05:52.053Z,2409.00
2023-04-28T10:06:52.082Z,2410.00
2023-04-28T10:07:52.137Z,2414.00
2023-04-28T10:08:52.215Z,2425.00
2023-04-28T10:09:52.255Z,2430.00
2023-04-28T10:10:52.320Z,2421.00
2023-04-28T10:11:52.362Z,2404.00
2023-04-28T10:12:52.419Z,2397.00
2023-04-28T10:13:52.460Z,2401.00
2023-04-28T10:14:52.534Z,2406.00
2023-04-28T10:15:52.596Z,2394.00
2023-04-28T10:16:52.603Z,2400.00
2023-04-28T10:17:52.704Z,2401.00
2023-04-28T10:18:52.746Z,2410.00
2023-04-28T10:19:52.784Z,2407.00
2023-04-28T10:20:52.823Z,2405.00
2023-04-28T10:21:52.884Z,2392.00
2023-04-28T10:22:52.939Z,2379.00
2023-04-28T10:23:53.020Z,2365.00
2023-04-28T10:24:52.977Z,2372.00
2023-04-28T10:25:52.994Z,2364.00
2023-04-28T10:26:53.060Z,2360.00
2023-04-28T10:27:53.069Z,2342.00
2023-04-28T10:28:53.126Z,2339.00
2023-04-28T10:29:53.143Z,2334.00
2023-04-28T10:30:53.208Z,2329.00
2023-04-28T10:31:53.238Z,2313.00
2023-04-28T10:32:53.314Z,2321.00
2023-04-28T10:33:53.319Z,2300.00
2023-04-28T10:34:53.375Z,2308.00
2023-04-28T10:35:53.367Z,1944.00
2023-04-28T10:36:53.565Z,1323.00
2023-04-28T10:37:53.474Z,809.00
2023-04-28T10:38:53.665Z,596.00
2023-04-28T10:39:53.484Z,507.00
2023-04-28T10:40:53.474Z,503.00
2023-04-28T10:41:53.554Z,477.00
2023-04-28T10:42:53.563Z,468.00
2023-04-28T10:43:53.548Z,490.00
2023-04-28T10:44:53.617Z,454.00
2023-04-28T10:45:55.671Z,500.00
2023-04-28T10:46:53.629Z,516.00
2023-04-28T10:47:53.646Z,544.00
2023-04-28T10:48:53.618Z,569.00
2023-04-28T10:49:53.601Z,535.00
2023-04-28T10:50:53.569Z,537.00
2023-04-28T10:51:53.558Z,502.00
2023-04-28T10:52:53.586Z,500.00
2023-04-28T10:53:53.574Z,501.00
2023-04-28T10:54:53.526Z,500.00
2023-04-28T10:55:53.525Z,504.00
2023-04-28T10:56:53.532Z,515.00
2023-04-28T10:57:53.545Z,509.00
2023-04-28T10:58:53.521Z,500.00
2023-04-28T10:59:53.540Z,501.00
2023-04-28T11:00:53.513Z,516.00
2023-04-28T11:01:53.572Z,520.00
2023-04-28T11:02:53.748Z,523.00
2023-04-28T11:03:53.636Z,524.00
2023-04-28T11:04:53.665Z,507.00
2023-04-28T11:05:53.491Z,523.00
2023-04-28T11:06:53.469Z,509.00
2023-04-28T11:07:53.969Z,514.00
2023-04-28T11:08:53.457Z,508.00
2023-04-28T11:09:53.463Z,518.00
2023-04-28T11:10:53.452Z,500.00
2023-04-28T11:11:53.440Z,513.00
2023-04-28T11:12:53.449Z,506.00
2023-04-28T11:13:53.424Z,521.00
2023-04-28T11:14:53.438Z,523.00
2023-04-28T11:15:53.443Z,526.00
2023-04-28T11:16:53.621Z,503.00
2023-04-28T11:17:53.441Z,500.00
2023-04-28T11:18:55.246Z,500.00
2023-04-28T11:19:53.423Z,522.00
2023-04-28T11:20:53.397Z,534.00
2023-04-28T11:21:53.388Z,523.00
2023-04-28T11:22:53.444Z,502.00
2023-04-28T11:23:53.491Z,510.00
2023-04-28T11:24:54.035Z,507.00
2023-04-28T11:25:53.577Z,505.00
2023-04-28T11:26:53.590Z,513.00
2023-04-28T11:27:53.631Z,500.00
2023-04-28T11:28:53.697Z,583.00
2023-04-28T11:29:53.743Z,666.00
2023-04-28T11:30:54.286Z,897.00
2023-04-28T11:31:53.827Z,1158.00
2023-04-28T11:32:53.849Z,1288.00
2023-04-28T11:33:54.211Z,1484.00
2023-04-28T11:34:53.838Z,1651.00
2023-04-28T11:35:53.869Z,1781.00
2023-04-28T11:36:54.976Z,1956.00
2023-04-28T11:37:53.885Z,2090.00
2023-04-28T11:38:54.222Z,2171.00
2023-04-28T11:39:53.906Z,2163.00
2023-04-28T11:40:53.949Z,2155.00
2023-04-28T11:41:54.016Z,1962.00
2023-04-28T11:42:55.130Z,2051.00
2023-04-28T11:43:54.246Z,2054.00
2023-04-28T11:44:54.272Z,2002.00
2023-04-28T11:45:54.298Z,2018.00
2023-04-28T11:46:54.312Z,2064.00
2023-04-28T11:47:54.378Z,2123.00
2023-04-28T11:48:54.319Z,2184.00
2023-04-28T11:49:54.349Z,2264.00
2023-04-28T11:50:54.324Z,2311.00
2023-04-28T11:51:54.353Z,2292.00
2023-04-28T11:52:54.370Z,2306.00
2023-04-28T11:53:54.374Z,2329.00
2023-04-28T11:54:54.400Z,2364.00
2023-04-28T11:55:54.434Z,2387.00
2023-04-28T11:56:54.440Z,2362.00
2023-04-28T11:57:54.510Z,2443.00
2023-04-28T11:58:54.575Z,2455.00
2023-04-28T11:59:54.617Z,2529.00
2023-04-28T12:00:54.659Z,2569.00
2023-04-28T12:01:54.717Z,2583.00
2023-04-28T12:02:54.874Z,2606.00
2023-04-28T12:03:54.804Z,2622.00
2023-04-28T12:04:54.812Z,2640.00
2023-04-28T12:05:54.889Z,2691.00
2023-04-28T12:06:54.875Z,2736.00
2023-04-28T12:07:54.901Z,2755.00
2023-04-28T12:08:54.928Z,2834.00
2023-04-28T12:09:54.942Z,2858.00
2023-04-28T12:10:55.008Z,3012.00